createdAt,value
2024-01-18T00:01:00.721Z,70.92
2024-01-18T00:03:29.003Z,69.96
2024-01-18T00:05:57.407Z,70.26
2024-01-18T00:08:27.201Z,69.91
2024-01-18T00:10:55.367Z,69.42
2024-01-18T00:13:23.611Z,70.05
2024-01-18T00:15:52.297Z,69.35
2024-01-18T00:18:20.740Z,69.93
2024-01-18T00:20:49.052Z,68.91
2024-01-18T00:23:18.161Z,69.08
2024-01-18T00:25:48.086Z,68.95
2024-01-18T00:28:16.241Z,70.08
2024-01-18T00:30:44.589Z,69.36
2024-01-18T00:33:13.015Z,69.14
2024-01-18T00:35:41.317Z,69.92
2024-01-18T00:38:09.679Z,69.07
2024-01-18T00:40:37.900Z,69.87
2024-01-18T00:43:07.815Z,69.10
2024-01-18T00:45:36.088Z,69.29
2024-01-18T00:48:04.589Z,68.84
2024-01-18T00:50:32.814Z,68.82
2024-01-18T00:53:01.033Z,69.28
2024-01-18T00:55:29.249Z,69.39
2024-01-18T00:57:57.441Z,68.82
2024-01-18T01:00:27.035Z,69.11
2024-01-18T01:02:55.311Z,69.06
2024-01-18T01:05:23.643Z,68.65
2024-01-18T01:07:51.869Z,68.80
2024-01-18T01:10:20.084Z,69.48
2024-01-18T01:12:48.236Z,69.53
2024-01-18T01:15:16.719Z,69.91
2024-01-18T01:17:46.569Z,69.34
2024-01-18T01:20:15.052Z,69.23
2024-01-18T01:22:43.442Z,69.92
2024-01-18T01:25:11.570Z,70.07
2024-01-18T01:27:39.778Z,70.32
2024-01-18T01:30:09.676Z,69.59
2024-01-18T01:32:37.922Z,69.50
2024-01-18T01:35:08.132Z,69.33
2024-01-18T01:37:36.254Z,69.21
2024-01-18T01:40:06.431Z,69.18
2024-01-18T01:42:34.667Z,69.34
2024-01-18T01:45:02.925Z,69.24
2024-01-18T01:47:31.296Z,69.48
2024-01-18T01:49:59.763Z,69.65
2024-01-18T01:52:32.374Z,69.61
2024-01-18T01:55:00.837Z,69.00
2024-01-18T01:57:29.624Z,69.52
2024-01-18T01:59:58.644Z,69.53
2024-01-18T02:02:27.003Z,69.25
2024-01-18T02:04:56.088Z,70.33
2024-01-18T02:07:26.693Z,69.90
2024-01-18T02:09:56.997Z,70.31
2024-01-18T02:12:26.172Z,71.16
2024-01-18T02:14:54.951Z,70.47
2024-01-18T02:17:23.250Z,71.10
2024-01-18T02:19:51.424Z,71.35
2024-01-18T02:22:22.331Z,71.25
2024-01-18T02:24:53.156Z,70.87
2024-01-18T02:27:23.094Z,70.27
2024-01-18T02:29:51.406Z,71.22
2024-01-18T02:32:19.563Z,70.23
2024-01-18T02:34:47.870Z,70.38
2024-01-18T02:37:16.337Z,70.32
2024-01-18T02:39:44.632Z,70.50
2024-01-18T02:42:12.970Z,69.84
2024-01-18T02:44:46.768Z,70.08
2024-01-18T02:47:15.027Z,69.64
2024-01-18T02:49:43.206Z,69.96
2024-01-18T02:52:11.482Z,69.23
2024-01-18T02:54:39.673Z,69.19
2024-01-18T02:57:07.921Z,70.26
2024-01-18T02:59:36.100Z,70.18
2024-01-18T03:02:06.043Z,69.32
2024-01-18T03:04:34.380Z,69.35
2024-01-18T03:07:02.750Z,70.30
2024-01-18T03:09:30.958Z,70.76
2024-01-18T03:11:59.293Z,70.78
2024-01-18T03:14:27.481Z,71.15
2024-01-18T03:16:55.574Z,72.17
2024-01-18T03:19:25.228Z,72.19
2024-01-18T03:21:53.561Z,72.56
2024-01-18T03:24:21.744Z,71.06
2024-01-18T03:26:50.069Z,71.27
2024-01-18T03:29:18.202Z,70.55
2024-01-18T03:31:46.387Z,71.72
2024-01-18T03:34:14.701Z,70.24
2024-01-18T03:36:44.899Z,70.15
2024-01-18T03:39:13.317Z,69.86
2024-01-18T03:41:42.055Z,70.07
2024-01-18T03:44:10.217Z,70.14
2024-01-18T03:46:38.342Z,70.79
2024-01-18T03:49:06.658Z,70.41
2024-01-18T03:51:34.958Z,70.51
2024-01-18T03:54:04.751Z,70.51
2024-01-18T03:56:32.895Z,70.24
2024-01-18T03:59:02.365Z,69.55
2024-01-18T04:01:35.729Z,70.77
2024-01-18T04:04:04.595Z,71.24
2024-01-18T04:06:32.906Z,70.14
2024-01-18T04:09:01.787Z,70.34
2024-01-18T04:11:32.072Z,70.63
2024-01-18T04:14:00.460Z,72.18
2024-01-18T04:16:30.826Z,71.11
2024-01-18T04:18:59.172Z,71.12
2024-01-18T04:21:27.547Z,71.43
2024-01-18T04:23:57.457Z,71.63
2024-01-18T04:26:25.033Z,71.80
2024-01-18T04:28:54.689Z,71.83
2024-01-18T04:31:22.881Z,71.86
2024-01-18T04:33:51.361Z,72.25
2024-01-18T04:36:19.785Z,71.43
2024-01-18T04:38:48.076Z,71.75
2024-01-18T04:41:16.497Z,72.02
2024-01-18T04:43:44.692Z,72.67
2024-01-18T04:46:14.445Z,73.14
2024-01-18T04:48:44.128Z,72.16
2024-01-18T04:51:12.409Z,71.91
2024-01-18T04:53:41.003Z,72.12
2024-01-18T04:56:09.728Z,72.73
2024-01-18T04:58:41.029Z,72.68
2024-01-18T05:01:10.590Z,71.90
2024-01-18T05:03:40.396Z,72.72
2024-01-18T05:06:10.570Z,71.49
2024-01-18T05:08:39.194Z,72.72
2024-01-18T05:11:07.968Z,72.71
2024-01-18T05:13:36.266Z,71.64
2024-01-18T05:16:04.695Z,72.35
2024-01-18T05:18:32.852Z,71.59
2024-01-18T05:21:02.552Z,71.61
2024-01-18T05:23:30.710Z,71.39
2024-01-18T05:25:59.216Z,72.02
2024-01-18T05:28:27.371Z,71.63
2024-01-18T05:30:55.882Z,71.91
2024-01-18T05:33:24.183Z,71.64
2024-01-18T05:35:53.166Z,70.45
2024-01-18T05:38:22.853Z,70.83
2024-01-18T05:40:51.004Z,71.05
2024-01-18T05:43:19.480Z,70.54
2024-01-18T05:45:47.874Z,71.45
2024-01-18T05:48:16.665Z,70.85
2024-01-18T05:50:44.962Z,70.89
2024-01-18T05:53:13.123Z,71.06
2024-01-18T05:55:42.924Z,71.28
2024-01-18T05:58:11.750Z,70.54
2024-01-18T06:00:40.017Z,70.89
2024-01-18T06:03:09.594Z,71.30
2024-01-18T06:05:37.788Z,70.59
2024-01-18T06:08:07.518Z,70.11
2024-01-18T06:10:35.741Z,70.56
2024-01-18T06:13:05.570Z,70.19
2024-01-18T06:15:34.039Z,70.30
2024-01-18T06:18:05.372Z,70.20
2024-01-18T06:20:33.924Z,70.34
2024-01-18T06:23:03.062Z,71.22
2024-01-18T06:25:31.265Z,71.63
2024-01-18T06:27:59.595Z,71.18
2024-01-18T06:30:29.502Z,70.93
2024-01-18T06:32:58.166Z,71.62
2024-01-18T06:35:26.413Z,72.16
2024-01-18T06:37:54.744Z,71.68
2024-01-18T06:40:23.166Z,72.04
2024-01-18T06:42:52.927Z,72.41
2024-01-18T06:45:21.162Z,72.01
2024-01-18T06:47:50.905Z,71.95
2024-01-18T06:50:19.161Z,72.30
2024-01-18T06:52:47.674Z,71.77
2024-01-18T06:55:15.967Z,71.57
2024-01-18T06:57:47.685Z,70.96
2024-01-18T07:00:17.455Z,71.83
2024-01-18T07:02:45.655Z,71.53
2024-01-18T07:05:15.315Z,70.85
2024-01-18T07:07:44.043Z,71.36
2024-01-18T07:10:12.544Z,71.42
2024-01-18T07:12:40.781Z,70.70
2024-01-18T07:15:09.535Z,71.43
2024-01-18T07:17:37.967Z,71.12
2024-01-18T07:20:08.172Z,70.81
2024-01-18T07:22:37.918Z,70.86
2024-01-18T07:25:07.034Z,70.89
2024-01-18T07:27:35.316Z,71.82
2024-01-18T07:30:05.230Z,71.47
2024-01-18T07:32:34.502Z,71.20
2024-01-18T07:35:03.324Z,71.63
2024-01-18T07:37:31.592Z,71.24
2024-01-18T07:40:01.699Z,72.04
2024-01-18T07:42:30.124Z,71.05
2024-01-18T07:44:58.720Z,70.95
2024-01-18T07:47:27.830Z,71.48
2024-01-18T07:49:56.158Z,71.46
2024-01-18T07:52:26.169Z,70.80
2024-01-18T07:54:54.437Z,70.79
2024-01-18T07:57:24.139Z,71.16
2024-01-18T07:59:52.396Z,71.97
2024-01-18T08:02:20.691Z,70.92
2024-01-18T08:04:49.085Z,71.68
2024-01-18T08:07:17.621Z,71.63
2024-01-18T08:09:46.001Z,71.66
2024-01-18T08:12:14.224Z,71.98
2024-01-18T08:14:44.525Z,71.16
2024-01-18T08:17:12.725Z,71.25
2024-01-18T08:19:41.814Z,70.84
2024-01-18T08:22:12.368Z,71.19
2024-01-18T08:24:43.053Z,71.77
2024-01-18T08:27:13.092Z,71.07
2024-01-18T08:29:41.467Z,71.45
2024-01-18T08:32:11.163Z,71.75
2024-01-18T08:34:40.905Z,70.85
2024-01-18T08:37:10.379Z,70.31
2024-01-18T08:39:38.696Z,70.75
2024-01-18T08:42:07.733Z,70.73
2024-01-18T08:44:36.073Z,70.68
2024-01-18T08:47:04.474Z,70.73
2024-01-18T08:49:34.173Z,70.62
2024-01-18T08:52:02.647Z,70.71
2024-01-18T08:54:31.739Z,69.66
2024-01-18T08:57:00.474Z,70.21
2024-01-18T08:59:28.694Z,69.75
2024-01-18T09:01:58.588Z,69.38
2024-01-18T09:04:28.979Z,69.24
2024-01-18T09:06:58.793Z,68.93
2024-01-18T09:09:27.114Z,69.26
2024-01-18T09:11:55.384Z,68.82
2024-01-18T09:14:24.477Z,68.56
2024-01-18T09:16:52.623Z,68.89
2024-01-18T09:19:22.049Z,68.48
2024-01-18T09:21:50.375Z,68.78
2024-01-18T09:24:20.851Z,68.38
2024-01-18T09:26:49.073Z,68.58
2024-01-18T09:29:17.270Z,68.37
2024-01-18T09:31:45.463Z,68.67
2024-01-18T09:34:13.711Z,68.46
2024-01-18T09:36:42.641Z,68.74
2024-01-18T09:39:17.201Z,68.61
2024-01-18T09:41:51.805Z,68.77
2024-01-18T09:44:26.058Z,68.42
2024-01-18T09:46:55.199Z,68.61
2024-01-18T09:49:23.614Z,68.04
2024-01-18T09:51:52.990Z,68.09
2024-01-18T09:54:21.656Z,68.01
2024-01-18T09:56:55.145Z,67.82
2024-01-18T09:59:24.656Z,67.51
2024-01-18T10:01:53.040Z,66.92
2024-01-18T10:04:22.025Z,67.18
2024-01-18T10:06:50.746Z,67.29
2024-01-18T10:09:19.102Z,67.01
2024-01-18T10:11:47.568Z,67.30
2024-01-18T10:14:17.489Z,67.44
2024-01-18T10:16:45.691Z,67.47
2024-01-18T10:19:16.177Z,67.41
2024-01-18T10:21:46.233Z,67.10
2024-01-18T10:24:16.371Z,66.96
2024-01-18T10:26:44.648Z,66.77
2024-01-18T10:29:13.065Z,66.85
2024-01-18T10:31:44.151Z,66.84
2024-01-18T10:34:12.659Z,66.25
2024-01-18T10:36:40.939Z,66.47
2024-01-18T10:39:18.492Z,66.35
2024-01-18T10:41:47.371Z,66.22
2024-01-18T10:44:16.813Z,66.29
2024-01-18T10:46:48.151Z,66.13
2024-01-18T10:49:16.833Z,65.86
2024-01-18T10:51:45.184Z,65.63
2024-01-18T10:54:25.386Z,66.19
2024-01-18T10:56:58.483Z,65.97
2024-01-18T10:59:28.876Z,66.06
2024-01-18T11:02:00.713Z,65.79
2024-01-18T11:04:30.184Z,66.17
2024-01-18T11:07:00.114Z,65.69
2024-01-18T11:09:31.166Z,65.86
2024-01-18T11:12:00.224Z,65.64
2024-01-18T11:14:29.644Z,65.57
2024-01-18T11:17:13.361Z,65.97
2024-01-18T11:19:43.614Z,65.62
2024-01-18T11:22:15.034Z,65.40
2024-01-18T11:24:44.875Z,65.69
2024-01-18T11:27:21.741Z,65.28
2024-01-18T11:29:50.936Z,65.33
2024-01-18T11:32:22.216Z,65.24
2024-01-18T11:34:51.420Z,66.08
2024-01-18T11:37:26.367Z,65.58
2024-01-18T11:40:00.525Z,66.10
2024-01-18T11:42:31.132Z,65.49
2024-01-18T11:45:02.292Z,65.71
2024-01-18T11:47:33.961Z,65.43
2024-01-18T11:50:06.997Z,65.23
2024-01-18T11:52:36.728Z,64.90
2024-01-18T11:55:06.976Z,65.16
2024-01-18T11:57:35.508Z,65.58
2024-01-18T12:00:04.883Z,65.20
2024-01-18T12:02:34.488Z,65.39
2024-01-18T12:05:04.954Z,65.74
2024-01-18T12:07:34.764Z,65.35
2024-01-18T12:10:03.780Z,65.87
2024-01-18T12:12:32.621Z,65.10
2024-01-18T12:15:02.141Z,65.00
2024-01-18T12:17:30.498Z,65.17
2024-01-18T12:20:01.637Z,64.96
2024-01-18T12:22:30.203Z,65.36
2024-01-18T12:24:59.827Z,65.47
2024-01-18T12:27:31.207Z,65.21
2024-01-18T12:29:59.650Z,65.07
2024-01-18T12:32:28.476Z,64.52
2024-01-18T12:34:58.883Z,64.63
2024-01-18T12:37:28.959Z,64.23
2024-01-18T12:39:57.419Z,64.56
2024-01-18T12:42:26.413Z,64.51
2024-01-18T12:44:54.892Z,64.68
2024-01-18T12:47:23.349Z,64.68
2024-01-18T12:49:56.524Z,64.45
2024-01-18T12:52:32.863Z,63.79
2024-01-18T12:55:02.116Z,64.57
2024-01-18T12:57:30.671Z,64.62
2024-01-18T12:59:59.079Z,63.82
2024-01-18T13:02:27.847Z,64.29
2024-01-18T13:05:00.155Z,64.20
2024-01-18T13:07:28.669Z,63.11
2024-01-18T13:09:58.676Z,63.31
2024-01-18T13:12:27.773Z,63.56
2024-01-18T13:14:56.097Z,62.95
2024-01-18T13:17:25.594Z,62.50
2024-01-18T13:19:55.906Z,63.13
2024-01-18T13:22:24.726Z,62.10
2024-01-18T13:24:53.504Z,63.00
2024-01-18T13:27:23.473Z,62.98
2024-01-18T13:29:51.810Z,62.33
2024-01-18T13:32:20.374Z,62.76
2024-01-18T13:34:49.031Z,62.52
2024-01-18T13:37:18.928Z,63.31
2024-01-18T13:39:54.829Z,63.35
2024-01-18T13:42:24.883Z,63.80
2024-01-18T13:44:53.369Z,63.50
2024-01-18T13:47:22.527Z,63.55
2024-01-18T13:49:52.069Z,63.24
2024-01-18T13:52:22.127Z,64.00
2024-01-18T13:54:50.965Z,64.06
2024-01-18T13:57:19.584Z,64.71
2024-01-18T13:59:49.744Z,64.29
2024-01-18T14:02:18.314Z,64.53
2024-01-18T14:04:47.253Z,65.14
2024-01-18T14:07:15.883Z,64.53
2024-01-18T14:09:44.703Z,65.47
2024-01-18T14:12:13.306Z,65.67
2024-01-18T14:14:42.119Z,65.08
2024-01-18T14:17:12.579Z,65.33
2024-01-18T14:19:41.391Z,65.64
2024-01-18T14:22:10.218Z,65.31
2024-01-18T14:24:38.909Z,65.82
2024-01-18T14:27:08.002Z,66.11
2024-01-18T14:29:36.742Z,66.23
2024-01-18T14:32:05.607Z,66.05
2024-01-18T14:34:35.456Z,65.78
2024-01-18T14:37:04.214Z,66.75
2024-01-18T14:39:34.746Z,66.27
2024-01-18T14:42:03.173Z,66.67
2024-01-18T14:44:33.484Z,66.76
2024-01-18T14:47:01.857Z,67.04
2024-01-18T14:49:30.312Z,67.17
2024-01-18T14:52:00.838Z,67.14
2024-01-18T14:54:29.113Z,67.59
2024-01-18T14:56:58.731Z,67.55
2024-01-18T14:59:26.972Z,67.46
2024-01-18T15:01:55.386Z,67.27
2024-01-18T15:04:24.352Z,66.97
2024-01-18T15:06:52.740Z,67.22
2024-01-18T15:09:22.705Z,67.20
2024-01-18T15:11:51.259Z,67.44
2024-01-18T15:14:19.768Z,67.47
2024-01-18T15:16:47.970Z,67.28
2024-01-18T15:19:17.601Z,67.50
2024-01-18T15:21:46.563Z,67.50
2024-01-18T15:24:15.097Z,68.07
2024-01-18T15:26:45.097Z,68.03
2024-01-18T15:29:13.344Z,68.15
2024-01-18T15:31:41.506Z,68.02
2024-01-18T15:34:10.011Z,67.98
2024-01-18T15:36:42.067Z,68.21
2024-01-18T15:39:12.064Z,68.69
2024-01-18T15:41:46.224Z,68.63
2024-01-18T15:44:16.552Z,68.74
2024-01-18T15:46:49.394Z,68.98
2024-01-18T15:49:17.822Z,68.33
2024-01-18T15:51:46.121Z,68.71
2024-01-18T15:54:14.446Z,68.19
2024-01-18T15:56:42.775Z,68.56
2024-01-18T15:59:10.927Z,68.05
2024-01-18T16:01:40.720Z,67.86
2024-01-18T16:04:10.750Z,67.86
2024-01-18T16:06:39.340Z,67.63
2024-01-18T16:09:08.617Z,68.02
2024-01-18T16:11:36.983Z,68.21
2024-01-18T16:14:05.229Z,68.06
2024-01-18T16:16:33.843Z,68.00
2024-01-18T16:19:03.763Z,68.03
2024-01-18T16:21:32.147Z,68.25
2024-01-18T16:24:00.359Z,68.20
2024-01-18T16:26:28.468Z,68.42
2024-01-18T16:28:57.555Z,68.30
2024-01-18T16:31:26.232Z,68.34
2024-01-18T16:33:54.649Z,67.97
2024-01-18T16:36:24.374Z,68.12
2024-01-18T16:38:52.782Z,68.07
2024-01-18T16:41:20.987Z,68.10
2024-01-18T16:43:49.827Z,68.11
2024-01-18T16:46:18.061Z,68.14
2024-01-18T16:48:46.517Z,67.96
2024-01-18T16:51:14.941Z,68.01
2024-01-18T16:53:45.621Z,68.08
2024-01-18T16:56:14.525Z,68.40
2024-01-18T16:58:42.893Z,68.07
2024-01-18T17:01:11.239Z,68.11
2024-01-18T17:03:39.765Z,68.18
2024-01-18T17:06:08.601Z,68.65
2024-01-18T17:08:37.106Z,68.24
2024-01-18T17:11:16.668Z,68.51
2024-01-18T17:13:48.616Z,68.17
2024-01-18T17:16:16.921Z,67.87
2024-01-18T17:18:45.522Z,68.29
2024-01-18T17:21:14.304Z,68.38
2024-01-18T17:23:42.582Z,68.57
2024-01-18T17:26:12.879Z,68.32
2024-01-18T17:28:41.490Z,68.85
2024-01-18T17:31:13.264Z,68.54
2024-01-18T17:33:41.771Z,68.53
2024-01-18T17:36:10.571Z,68.51
2024-01-18T17:38:38.919Z,67.89
2024-01-18T17:41:07.413Z,68.16
2024-01-18T17:43:37.286Z,68.03
2024-01-18T17:46:07.401Z,68.42
2024-01-18T17:48:37.694Z,68.39
2024-01-18T17:51:07.379Z,68.43
2024-01-18T17:53:35.755Z,68.52
2024-01-18T17:56:05.060Z,68.60
2024-01-18T17:58:33.732Z,68.07
2024-01-18T18:01:07.074Z,68.15
2024-01-18T18:03:37.939Z,67.88
2024-01-18T18:06:06.670Z,67.66
2024-01-18T18:08:35.240Z,67.58
2024-01-18T18:11:05.899Z,67.35
2024-01-18T18:13:35.679Z,67.26
2024-01-18T18:16:06.217Z,67.34
2024-01-18T18:18:35.702Z,66.92
2024-01-18T18:21:06.421Z,67.24
2024-01-18T18:23:34.618Z,67.19
2024-01-18T18:26:08.168Z,67.25
2024-01-18T18:28:37.544Z,67.13
2024-01-18T18:31:08.148Z,66.69
2024-01-18T18:33:36.354Z,66.44
2024-01-18T18:36:05.269Z,66.63
2024-01-18T18:38:34.381Z,66.78
2024-01-18T18:41:04.269Z,67.12
2024-01-18T18:43:32.743Z,66.83
2024-01-18T18:46:01.105Z,66.99
2024-01-18T18:48:31.610Z,67.13
2024-01-18T18:51:01.454Z,66.83
2024-01-18T18:53:29.750Z,66.59
2024-01-18T18:55:58.069Z,66.76
2024-01-18T18:58:26.398Z,66.73
2024-01-18T19:00:54.707Z,66.53
2024-01-18T19:03:23.119Z,66.67
2024-01-18T19:05:53.856Z,66.03
2024-01-18T19:08:22.280Z,66.47
2024-01-18T19:10:51.597Z,66.19
2024-01-18T19:13:21.052Z,66.57
2024-01-18T19:15:49.347Z,66.29
2024-01-18T19:18:17.708Z,66.26
2024-01-18T19:20:46.249Z,66.15
2024-01-18T19:23:16.068Z,66.36
2024-01-18T19:25:44.325Z,66.70
2024-01-18T19:28:13.513Z,65.93
2024-01-18T19:30:41.621Z,65.97
2024-01-18T19:33:09.862Z,65.93
2024-01-18T19:35:38.114Z,66.55
2024-01-18T19:38:06.566Z,67.02
2024-01-18T19:40:36.199Z,66.62
2024-01-18T19:43:04.421Z,66.55
2024-01-18T19:45:33.044Z,66.20
2024-01-18T19:48:01.581Z,66.56
2024-01-18T19:50:30.502Z,66.32
2024-01-18T19:52:59.647Z,66.16
2024-01-18T19:55:28.161Z,66.26
2024-01-18T19:57:58.554Z,65.76
2024-01-18T20:00:28.234Z,65.68
2024-01-18T20:02:56.986Z,66.15
2024-01-18T20:05:26.309Z,66.70
2024-01-18T20:07:54.924Z,66.53
2024-01-18T20:10:23.282Z,67.44
2024-01-18T20:12:51.505Z,66.39
2024-01-18T20:15:21.262Z,66.63
2024-01-18T20:17:50.050Z,66.86
2024-01-18T20:20:19.845Z,67.59
2024-01-18T20:22:49.143Z,67.72
2024-01-18T20:25:18.324Z,67.70
2024-01-18T20:27:46.731Z,67.66
2024-01-18T20:30:15.577Z,67.69
2024-01-18T20:32:45.416Z,68.22
2024-01-18T20:35:13.935Z,68.28
2024-01-18T20:37:42.512Z,67.38
2024-01-18T20:40:12.159Z,68.24
2024-01-18T20:42:40.534Z,68.41
2024-01-18T20:45:10.368Z,68.32
2024-01-18T20:47:38.698Z,66.98
2024-01-18T20:50:09.556Z,66.93
2024-01-18T20:52:37.957Z,66.91
2024-01-18T20:55:07.125Z,66.91
2024-01-18T20:57:35.443Z,67.02
2024-01-18T21:00:03.715Z,67.34
2024-01-18T21:02:32.884Z,67.07
2024-01-18T21:05:01.214Z,65.96
2024-01-18T21:07:30.924Z,65.38
2024-01-18T21:09:59.102Z,65.17
2024-01-18T21:12:27.404Z,64.81
2024-01-18T21:14:55.968Z,64.46
2024-01-18T21:17:24.303Z,65.70
2024-01-18T21:19:52.387Z,64.01
2024-01-18T21:22:21.751Z,65.29
2024-01-18T21:24:51.447Z,63.92
2024-01-18T21:27:19.570Z,64.34
2024-01-18T21:29:47.922Z,65.06
2024-01-18T21:32:16.148Z,64.44
2024-01-18T21:34:44.700Z,65.01
2024-01-18T21:37:14.804Z,63.77
2024-01-18T21:39:43.045Z,63.92
2024-01-18T21:42:13.259Z,64.71
2024-01-18T21:44:41.937Z,64.73
2024-01-18T21:47:10.356Z,64.76
2024-01-18T21:49:38.969Z,64.29
2024-01-18T21:52:08.120Z,65.25
2024-01-18T21:54:36.399Z,64.25
2024-01-18T21:57:04.850Z,64.96
2024-01-18T21:59:39.962Z,65.27
2024-01-18T22:02:14.389Z,64.18
2024-01-18T22:04:42.890Z,63.51
2024-01-18T22:07:11.726Z,62.65
2024-01-18T22:09:42.541Z,63.99
2024-01-18T22:12:12.414Z,64.06
2024-01-18T22:14:42.879Z,63.59
2024-01-18T22:17:11.233Z,63.52
2024-01-18T22:19:46.687Z,63.92
2024-01-18T22:22:23.583Z,65.15
2024-01-18T22:24:51.908Z,64.65
2024-01-18T22:27:20.347Z,64.18
2024-01-18T22:29:49.978Z,64.56
2024-01-18T22:32:18.427Z,64.70
2024-01-18T22:34:48.674Z,65.01
2024-01-18T22:37:18.088Z,65.00
2024-01-18T22:39:46.217Z,65.06
2024-01-18T22:42:14.698Z,65.58
2024-01-18T22:44:43.150Z,65.24
2024-01-18T22:47:13.515Z,65.47
2024-01-18T22:49:41.749Z,65.66
2024-01-18T22:52:09.881Z,65.95
2024-01-18T22:54:37.973Z,65.94
2024-01-18T22:57:06.922Z,66.68
2024-01-18T22:59:35.101Z,66.45
2024-01-18T23:02:03.282Z,66.63
2024-01-18T23:04:32.993Z,66.48
2024-01-18T23:07:01.288Z,65.99
2024-01-18T23:09:29.482Z,66.32
2024-01-18T23:11:57.884Z,65.86
2024-01-18T23:14:26.227Z,65.91
2024-01-18T23:16:54.516Z,65.72
2024-01-18T23:19:22.798Z,65.50
2024-01-18T23:21:52.940Z,65.23
2024-01-18T23:24:21.206Z,65.13
2024-01-18T23:26:49.731Z,64.73
2024-01-18T23:29:18.173Z,64.77
2024-01-18T23:31:46.494Z,65.06
2024-01-18T23:34:14.871Z,65.21
2024-01-18T23:36:44.709Z,65.10
2024-01-18T23:39:14.590Z,64.79
2024-01-18T23:41:42.979Z,64.75
2024-01-18T23:44:12.029Z,64.52
2024-01-18T23:46:42.275Z,64.65
2024-01-18T23:49:10.806Z,64.42
2024-01-18T23:51:39.096Z,64.21
2024-01-18T23:54:08.383Z,64.24
2024-01-18T23:56:38.744Z,64.13
2024-01-18T23:59:07.172Z,64.21
